Time;durP1;ratioP1;P1;durP2;ratioP2;P2;SDS_P1;SDS_P2;PMS_P1;PMS_P2;Temp;Humidity;BMP_temperature;BMP_pressure;BME280_temperature;BME280_humidity;BME280_pressure;Samples;Min_cycle;Max_cycle;Signal;HPM_P1;HPM_P2
2022/01/23 00:00:00;;;;;;;51.87;29.00;;;6.20;99.90;;;;;;2614314;54;20833;-76
2022/01/23 00:02:27;;;;;;;46.97;29.03;;;6.10;99.90;;;;;;2614712;54;20952;-76
2022/01/23 00:04:53;;;;;;;50.93;29.27;;;6.10;99.90;;;;;;2614038;54;20410;-76
2022/01/23 00:07:19;;;;;;;45.33;30.50;;;6.20;99.90;;;;;;2613625;54;20451;-76
2022/01/23 00:09:45;;;;;;;48.37;31.47;;;6.10;99.90;;;;;;2612012;54;20392;-76
2022/01/23 00:12:17;;;;;;;51.63;29.67;;;5.90;99.90;;;;;;2613873;54;20419;-76
2022/01/23 00:17:35;;;;;;;45.57;29.53;;;5.80;99.90;;;;;;2612218;54;20427;-76
2022/01/23 00:20:06;;;;;;;50.73;28.30;;;5.70;99.90;;;;;;2613911;39;20877;-77
2022/01/23 00:22:49;;;;;;;48.83;29.07;;;5.80;99.90;;;;;;2614731;47;20427;-78
2022/01/23 00:30:46;;;;;;;46.90;27.80;;;5.70;99.90;;;;;;2613703;54;20459;-77
2022/01/23 00:33:13;;;;;;;46.80;27.77;;;5.70;99.90;;;;;;2615265;39;21054;-76
2022/01/23 00:35:41;;;;;;;63.70;29.93;;;5.70;99.90;;;;;;2612202;54;21322;-76
2022/01/23 00:38:09;;;;;;;29.63;15.13;;;5.70;99.90;;;;;;2612934;54;20371;-76
2022/01/23 00:40:37;;;;;;;47.27;30.23;;;5.80;99.90;;;;;;2615098;39;20782;-76
2022/01/23 00:43:49;;;;;;;53.30;27.17;;;5.90;99.90;;;;;;2614845;47;20516;-76
2022/01/23 00:46:22;;;;;;;43.00;26.87;;;5.90;99.90;;;;;;2613193;47;20427;-75
2022/01/23 00:49:25;;;;;;;38.47;24.93;;;5.80;99.90;;;;;;2614849;54;20403;-75
2022/01/23 00:51:40;;;;;;;43.00;25.50;;;5.80;99.90;;;;;;2613326;54;20422;-78
2022/01/23 00:54:11;;;;;;;42.43;25.27;;;5.90;99.90;;;;;;2614384;54;20384;-76
2022/01/23 00:56:37;;;;;;;40.97;25.77;;;5.90;99.90;;;;;;2614698;54;20435;-77
2022/01/23 00:59:03;;;;;;;43.83;27.40;;;5.90;99.90;;;;;;2614819;54;20411;-76
2022/01/23 01:01:30;;;;;;;41.97;26.97;;;6.00;99.90;;;;;;2613668;54;20420;-76
2022/01/23 01:03:55;;;;;;;42.10;25.63;;;5.90;99.90;;;;;;2614514;54;20440;-76
2022/01/23 01:06:21;;;;;;;42.07;24.90;;;5.90;99.90;;;;;;2612394;54;21068;-76
2022/01/23 01:08:50;;;;;;;39.40;27.40;;;6.00;99.90;;;;;;2615150;54;21176;-76
2022/01/23 01:16:57;;;;;;;37.30;23.63;;;5.80;99.90;;;;;;2608193;47;20995;-76
2022/01/23 01:36:19;;;;;;;42.37;24.30;;;6.20;99.90;;;;;;2613911;47;20438;-76
2022/01/23 01:38:46;;;;;;;42.20;24.33;;;6.20;99.90;;;;;;2611730;54;20442;-76
2022/01/23 01:41:15;;;;;;;39.20;23.80;;;6.10;99.90;;;;;;2614980;54;20454;-76
2022/01/23 01:43:41;;;;;;;35.63;22.67;;;5.80;99.90;;;;;;2614827;47;20515;-75
2022/01/23 01:46:07;;;;;;;37.30;24.47;;;5.70;99.90;;;;;;2614000;47;20916;-76
2022/01/23 01:48:40;;;;;;;41.10;24.80;;;5.60;99.90;;;;;;2615138;47;20427;-77
2022/01/23 01:51:14;;;;;;;44.23;24.80;;;5.60;99.90;;;;;;2613304;47;20412;-76
2022/01/23 01:53:47;;;;;;;35.97;23.43;;;5.50;99.90;;;;;;2613507;54;20415;-77
2022/01/23 01:56:13;;;;;;;41.17;25.77;;;5.50;99.90;;;;;;2613031;54;20450;-76
2022/01/23 02:09:43;;;;;;;40.00;25.70;;;5.90;99.90;;;;;;2614422;39;21004;-76
2022/01/23 02:15:26;;;;;;;47.00;26.93;;;5.80;99.90;;;;;;2614736;47;20462;-77
2022/01/23 02:50:42;;;;;;;47.23;29.00;;;6.30;99.90;;;;;;2613308;54;21023;-76
2022/01/23 02:53:31;;;;;;;46.97;30.17;;;6.80;99.90;;;;;;2614890;54;20431;-75
2022/01/23 02:55:59;;;;;;;40.90;26.63;;;6.90;99.90;;;;;;2614092;54;21019;-77
2022/01/23 02:58:32;;;;;;;50.93;30.13;;;7.10;99.90;;;;;;2613384;54;20423;-77
2022/01/23 03:01:16;;;;;;;50.10;27.20;;;6.80;99.90;;;;;;2613705;47;20427;-77
2022/01/23 03:03:56;;;;;;;42.77;26.73;;;6.60;99.90;;;;;;2614651;39;20832;-77
2022/01/23 03:09:52;;;;;;;48.40;28.70;;;6.20;99.90;;;;;;2614958;54;20415;-77
2022/01/23 03:30:34;;;;;;;39.77;24.77;;;6.80;99.90;;;;;;2611642;47;20427;-76
2022/01/23 03:33:00;;;;;;;48.33;30.60;;;6.70;99.90;;;;;;2612317;54;20396;-76
2022/01/23 03:35:26;;;;;;;45.20;29.50;;;7.00;99.90;;;;;;2612946;54;20434;-76
2022/01/23 03:37:52;;;;;;;45.40;27.87;;;7.40;99.90;;;;;;2611700;54;20250;-76
2022/01/23 03:40:19;;;;;;;40.97;26.77;;;7.50;99.90;;;;;;2614570;47;20701;-76
2022/01/23 03:42:48;;;;;;;41.30;26.97;;;7.60;99.90;;;;;;2612764;54;20407;-76
2022/01/23 03:50:32;;;;;;;52.53;27.73;;;7.00;99.90;;;;;;2612470;47;20515;-77
2022/01/23 03:53:00;;;;;;;45.40;28.60;;;7.10;99.90;;;;;;2611730;47;21164;-76
2022/01/23 03:55:26;;;;;;;36.63;25.07;;;6.70;99.90;;;;;;2612369;47;20462;-76
2022/01/23 03:57:52;;;;;;;47.57;27.10;;;6.90;99.90;;;;;;2613030;46;20218;-76
2022/01/23 04:00:18;;;;;;;66.03;29.33;;;6.90;99.90;;;;;;2613622;54;20411;-77
2022/01/23 04:02:44;;;;;;;53.00;27.57;;;7.10;99.90;;;;;;2615103;54;20178;-77
2022/01/23 04:05:19;;;;;;;48.93;28.63;;;6.80;99.90;;;;;;2614125;47;20797;-76
2022/01/23 04:07:46;;;;;;;43.40;27.30;;;6.80;99.90;;;;;;2614578;54;20590;-76
2022/01/23 04:10:16;;;;;;;45.93;28.40;;;7.00;99.90;;;;;;2614120;54;20457;-76
2022/01/23 04:13:47;;;;;;;49.43;28.73;;;7.00;99.90;;;;;;2613406;54;20425;-76
2022/01/23 04:15:49;;;;;;;42.63;26.97;;;7.20;99.90;;;;;;2611696;47;20472;-76
2022/01/23 05:01:12;;;;;;;37.80;26.03;;;5.50;99.90;;;;;;2610594;54;20431;-76
2022/01/23 05:07:02;;;;;;;40.80;26.77;;;5.50;99.90;;;;;;2615348;47;20446;-76
2022/01/23 05:09:51;;;;;;;47.23;26.83;;;5.60;99.90;;;;;;2614424;54;20411;-76
2022/01/23 05:12:27;;;;;;;41.60;26.90;;;5.60;99.90;;;;;;2611387;47;20426;-76
2022/01/23 05:14:53;;;;;;;49.07;28.67;;;5.60;99.90;;;;;;2611025;54;20438;-77
2022/01/23 05:17:19;;;;;;;51.53;27.90;;;5.60;99.90;;;;;;2612024;54;20392;-76
2022/01/23 05:19:45;;;;;;;49.97;28.60;;;6.10;99.90;;;;;;2611882;54;20407;-76
2022/01/23 05:22:38;;;;;;;51.53;29.83;;;6.50;99.90;;;;;;2613764;54;20420;-77
2022/01/23 05:25:21;;;;;;;49.80;29.83;;;6.90;99.90;;;;;;2612907;54;20443;-77
2022/01/23 05:27:51;;;;;;;50.57;28.90;;;7.10;99.90;;;;;;2614810;47;20419;-75
2022/01/23 05:30:17;;;;;;;50.83;30.13;;;7.10;99.90;;;;;;2614877;54;21006;-76
2022/01/23 05:32:43;;;;;;;49.77;29.90;;;7.10;99.90;;;;;;2614940;54;20387;-76
2022/01/23 05:35:11;;;;;;;43.83;27.23;;;7.10;99.90;;;;;;2614542;39;20932;-76
2022/01/23 05:37:39;;;;;;;43.43;26.93;;;7.20;99.90;;;;;;2614223;54;20419;-76
2022/01/23 05:40:11;;;;;;;48.53;29.17;;;7.30;99.90;;;;;;2611072;54;20987;-76
2022/01/23 05:42:39;;;;;;;45.93;28.80;;;7.70;99.90;;;;;;2614418;54;20459;-77
2022/01/23 05:45:08;;;;;;;55.63;31.20;;;7.80;99.90;;;;;;2611767;47;20478;-76
2022/01/23 05:47:53;;;;;;;46.07;30.13;;;7.50;99.90;;;;;;2613729;54;20996;-76
2022/01/23 05:50:38;;;;;;;46.87;28.27;;;7.80;99.90;;;;;;2613387;54;20423;-76
2022/01/23 05:53:22;;;;;;;49.83;31.90;;;7.60;99.90;;;;;;2614177;39;20791;-76
2022/01/23 05:56:06;;;;;;;52.27;29.30;;;7.50;99.90;;;;;;2611934;54;20439;-76
2022/01/23 05:58:50;;;;;;;55.53;33.23;;;7.30;99.90;;;;;;2612762;54;20386;-77
2022/01/23 06:01:17;;;;;;;59.70;31.93;;;6.80;99.90;;;;;;2610932;54;20515;-76
2022/01/23 06:03:45;;;;;;;55.40;33.20;;;6.50;99.90;;;;;;2614822;54;20420;-76
2022/01/23 06:06:13;;;;;;;62.13;34.97;;;6.70;99.90;;;;;;2614215;31;20962;-76
2022/01/23 06:08:39;;;;;;;56.67;32.87;;;6.50;99.90;;;;;;2614097;47;20423;-76
2022/01/23 06:11:05;;;;;;;49.80;30.07;;;6.50;99.90;;;;;;2614832;39;20697;-76
2022/01/23 06:13:34;;;;;;;53.63;32.87;;;6.60;99.90;;;;;;2613053;54;20479;-76
2022/01/23 06:16:01;;;;;;;58.30;32.20;;;6.80;99.90;;;;;;2611018;54;20430;-76
2022/01/23 06:18:27;;;;;;;49.60;32.07;;;6.70;99.90;;;;;;2607697;39;20824;-76
2022/01/23 06:21:15;;;;;;;52.13;31.03;;;6.70;99.90;;;;;;2607092;54;20548;-77
2022/01/23 06:27:05;;;;;;;50.70;30.23;;;6.00;99.90;;;;;;2612537;47;20395;-76
2022/01/23 06:29:36;;;;;;;53.70;32.37;;;6.70;99.90;;;;;;2612438;54;20451;-76
2022/01/23 06:32:03;;;;;;;54.50;33.43;;;6.60;99.90;;;;;;2606921;46;20499;-76
2022/01/23 06:34:30;;;;;;;57.17;34.07;;;6.40;99.90;;;;;;2608080;47;20425;-76
2022/01/23 06:36:56;;;;;;;55.43;32.30;;;6.40;99.90;;;;;;2606787;54;20412;-76
2022/01/23 06:39:24;;;;;;;66.77;33.83;;;6.50;99.90;;;;;;2609664;47;20961;-77
2022/01/23 06:41:54;;;;;;;47.40;31.30;;;6.50;99.90;;;;;;2613406;54;20438;-77
2022/01/23 06:44:40;;;;;;;47.57;30.57;;;6.10;99.90;;;;;;2611909;47;20428;-76
2022/01/23 06:47:11;;;;;;;50.23;30.77;;;5.80;99.90;;;;;;2612380;51;20420;-76
2022/01/23 06:49:36;;;;;;;55.33;30.50;;;5.90;99.90;;;;;;2610930;47;20458;-77
2022/01/23 06:52:03;;;;;;;61.13;32.67;;;5.80;99.90;;;;;;2611597;54;20450;-76
2022/01/23 06:54:29;;;;;;;55.83;30.80;;;5.90;99.90;;;;;;2611608;54;22861;-78
2022/01/23 06:56:56;;;;;;;56.20;33.83;;;5.80;99.90;;;;;;2611303;54;20422;-77
2022/01/23 06:59:22;;;;;;;53.20;32.50;;;6.00;99.90;;;;;;2611095;54;20448;-77
2022/01/23 07:01:54;;;;;;;59.33;32.47;;;5.80;99.90;;;;;;2612438;54;20442;-76
2022/01/23 07:04:28;;;;;;;52.87;31.70;;;5.80;99.90;;;;;;2613878;47;20514;-76
2022/01/23 07:07:10;;;;;;;62.17;34.13;;;6.30;99.90;;;;;;2614784;39;20801;-76
2022/01/23 07:09:54;;;;;;;65.20;33.90;;;6.10;99.90;;;;;;2613851;54;20418;-76
2022/01/23 07:12:52;;;;;;;57.57;33.17;;;6.10;99.90;;;;;;2611772;54;20400;-77
2022/01/23 07:15:30;;;;;;;58.77;34.57;;;6.50;99.90;;;;;;2610676;47;20412;-77
2022/01/23 07:18:19;;;;;;;61.23;32.43;;;6.40;99.90;;;;;;2612245;54;20464;-77
2022/01/23 07:21:07;;;;;;;50.23;29.13;;;6.80;99.90;;;;;;2612638;39;20980;-76
2022/01/23 07:23:36;;;;;;;58.63;33.83;;;6.90;99.90;;;;;;2610753;54;20963;-78
2022/01/23 07:26:03;;;;;;;52.90;31.77;;;6.80;99.90;;;;;;2612004;47;20436;-77
2022/01/23 07:28:39;;;;;;;67.30;35.20;;;6.30;99.90;;;;;;2608108;54;20206;-76
2022/01/23 07:31:07;;;;;;;52.60;31.73;;;6.20;99.90;;;;;;2609837;47;20463;-78
2022/01/23 07:33:35;;;;;;;60.07;33.20;;;6.40;99.90;;;;;;2612008;54;20419;-76
2022/01/23 07:36:02;;;;;;;59.33;33.13;;;6.60;99.90;;;;;;2607199;39;20734;-77
2022/01/23 07:38:28;;;;;;;60.23;35.80;;;6.80;99.90;;;;;;2610579;39;20805;-77
2022/01/23 07:41:08;;;;;;;59.90;33.40;;;7.10;99.90;;;;;;2610644;54;20526;-77
2022/01/23 07:43:59;;;;;;;65.90;35.73;;;7.10;99.90;;;;;;2609295;54;20976;-76
2022/01/23 07:46:49;;;;;;;58.50;31.40;;;7.00;99.90;;;;;;2610516;54;20419;-77
2022/01/23 07:49:29;;;;;;;59.97;34.43;;;6.80;99.90;;;;;;2609702;47;21595;-77
2022/01/23 07:52:16;;;;;;;51.40;35.20;;;6.90;99.90;;;;;;2610169;47;20411;-77
2022/01/23 07:55:07;;;;;;;59.17;34.13;;;6.80;99.90;;;;;;2610964;39;20805;-77
2022/01/23 07:57:35;;;;;;;59.90;32.77;;;7.40;99.90;;;;;;2608388;54;22510;-77
2022/01/23 08:00:30;;;;;;;53.73;32.47;;;7.60;99.90;;;;;;2647309;36;20471;-76
2022/01/23 08:03:00;;;;;;;76.20;35.70;;;6.80;99.90;;;;;;2612378;47;20423;-76
2022/01/23 08:05:52;;;;;;;57.03;33.87;;;6.80;99.90;;;;;;2610515;54;20423;-76
2022/01/23 08:08:28;;;;;;;56.63;34.30;;;7.00;99.90;;;;;;2611166;47;20415;-76
2022/01/23 08:11:04;;;;;;;57.23;33.77;;;6.80;99.90;;;;;;2611792;54;20380;-76
2022/01/23 08:13:30;;;;;;;67.63;37.17;;;6.50;99.90;;;;;;2610822;54;20418;-75
2022/01/23 08:15:56;;;;;;;56.70;34.73;;;6.60;99.90;;;;;;2611287;47;20392;-77
2022/01/23 08:18:21;;;;;;;65.60;33.27;;;6.80;99.90;;;;;;2612030;54;20194;-76
2022/01/23 08:20:47;;;;;;;71.17;38.93;;;6.80;99.90;;;;;;2611009;54;20170;-76
2022/01/23 08:23:13;;;;;;;58.40;36.93;;;6.60;99.90;;;;;;2612536;54;20499;-78
2022/01/23 08:25:39;;;;;;;67.33;35.83;;;6.60;99.90;;;;;;2611170;54;20220;-77
2022/01/23 08:28:07;;;;;;;57.70;34.80;;;6.80;99.90;;;;;;2610560;54;20982;-76
2022/01/23 08:30:34;;;;;;;68.27;37.03;;;6.70;99.90;;;;;;2612053;54;20430;-77
2022/01/23 08:33:00;;;;;;;66.10;34.33;;;7.10;99.90;;;;;;2610585;47;20496;-76
2022/01/23 08:35:27;;;;;;;59.30;33.33;;;6.50;99.90;;;;;;2612177;39;21707;-77
2022/01/23 08:37:54;;;;;;;60.70;34.00;;;6.50;99.90;;;;;;2615187;54;20457;-77
2022/01/23 08:40:34;;;;;;;69.17;36.33;;;7.00;99.90;;;;;;2614521;54;21098;-78
2022/01/23 08:43:01;;;;;;;75.60;35.00;;;7.20;99.90;;;;;;2613171;54;20430;-77
2022/01/23 08:45:26;;;;;;;63.30;35.30;;;7.60;99.90;;;;;;2615074;54;20482;-77
2022/01/23 08:47:52;;;;;;;64.80;35.37;;;8.10;99.90;;;;;;2616150;54;20419;-77
2022/01/23 08:50:18;;;;;;;62.70;33.80;;;8.40;99.90;;;;;;2615136;54;20229;-77
2022/01/23 08:52:44;;;;;;;57.77;34.50;;;8.00;99.90;;;;;;2615392;39;20619;-78
2022/01/23 08:55:10;;;;;;;69.27;35.10;;;7.50;99.90;;;;;;2615358;54;20139;-78
2022/01/23 08:57:36;;;;;;;53.57;32.30;;;7.00;99.90;;;;;;2614222;47;20174;-77
2022/01/23 09:00:04;;;;;;;58.07;33.63;;;6.80;99.90;;;;;;2614705;39;20787;-77
2022/01/23 09:02:30;;;;;;;61.80;32.23;;;6.90;99.90;;;;;;2613916;53;20466;-78
2022/01/23 09:04:56;;;;;;;53.27;31.37;;;6.50;99.90;;;;;;2613395;54;20411;-78
2022/01/23 09:07:22;;;;;;;64.97;34.13;;;6.40;99.90;;;;;;2614482;54;20193;-78
2022/01/23 09:09:49;;;;;;;58.13;32.13;;;6.80;99.90;;;;;;2614747;54;20427;-78
2022/01/23 09:14:40;;;;;;;60.40;32.63;;;7.00;99.90;;;;;;2614880;54;20418;-78
2022/01/23 09:17:06;;;;;;;65.33;35.30;;;6.60;99.90;;;;;;2615613;54;20153;-77
2022/01/23 09:19:32;;;;;;;51.20;31.47;;;6.60;99.90;;;;;;2613103;54;20162;-77
2022/01/23 09:21:59;;;;;;;52.07;30.17;;;6.40;99.90;;;;;;2614676;54;20400;-77
2022/01/23 09:24:26;;;;;;;64.80;35.13;;;6.30;99.90;;;;;;2614087;47;20423;-76
2022/01/23 09:26:55;;;;;;;61.67;32.50;;;6.70;99.90;;;;;;2613751;54;20418;-77
2022/01/23 09:29:35;;;;;;;61.53;32.77;;;6.80;99.90;;;;;;2615336;54;20380;-78
2022/01/23 09:32:02;;;;;;;59.57;32.10;;;6.70;99.90;;;;;;2613381;47;20435;-77
2022/01/23 09:34:33;;;;;;;50.03;29.77;;;6.90;99.90;;;;;;2614526;39;21106;-77
2022/01/23 09:37:02;;;;;;;45.63;23.73;;;6.60;99.90;;;;;;2613509;54;20419;-77
2022/01/23 09:39:29;;;;;;;44.77;25.90;;;6.50;99.90;;;;;;2614691;54;20543;-78
2022/01/23 09:42:06;;;;;;;53.63;29.17;;;6.90;99.90;;;;;;2613670;54;20430;-77
2022/01/23 09:44:51;;;;;;;56.40;28.57;;;7.30;99.90;;;;;;2614144;47;20430;-77
2022/01/23 09:47:19;;;;;;;49.53;30.20;;;7.70;99.90;;;;;;2615123;47;20514;-76
2022/01/23 09:49:47;;;;;;;55.23;29.50;;;7.70;99.90;;;;;;2613775;54;20415;-78
2022/01/23 09:52:14;;;;;;;58.27;33.10;;;7.40;99.90;;;;;;2614610;47;20442;-77
2022/01/23 09:54:44;;;;;;;51.90;26.77;;;7.40;99.90;;;;;;2613266;54;20438;-77
2022/01/23 09:57:11;;;;;;;54.17;29.47;;;7.50;99.90;;;;;;2611925;39;20892;-78
2022/01/23 09:59:39;;;;;;;50.73;30.50;;;8.10;99.90;;;;;;2612621;54;20399;-78
2022/01/23 10:02:05;;;;;;;59.77;32.37;;;8.50;99.90;;;;;;2612171;54;20519;-78
2022/01/23 10:04:31;;;;;;;62.30;33.60;;;8.50;99.90;;;;;;2612420;47;20435;-77
2022/01/23 10:06:57;;;;;;;54.37;30.23;;;8.50;99.90;;;;;;2611477;54;21029;-77
2022/01/23 10:09:27;;;;;;;57.07;31.90;;;8.50;99.90;;;;;;2613100;54;20475;-78
2022/01/23 10:11:53;;;;;;;53.67;30.00;;;8.50;99.90;;;;;;2613396;54;20414;-76
2022/01/23 10:14:20;;;;;;;47.83;24.47;;;8.20;99.90;;;;;;2615221;54;20418;-77
2022/01/23 10:16:47;;;;;;;53.57;27.97;;;8.10;99.90;;;;;;2614661;54;20139;-78
2022/01/23 10:19:15;;;;;;;49.10;32.60;;;8.30;99.90;;;;;;2613315;54;20427;-77
2022/01/23 10:21:43;;;;;;;50.70;28.60;;;8.80;99.90;;;;;;2612449;54;20400;-79
2022/01/23 10:24:11;;;;;;;42.37;24.93;;;9.00;99.90;;;;;;2612376;47;20444;-76
2022/01/23 10:26:44;;;;;;;42.63;26.10;;;9.10;99.90;;;;;;2612949;54;20402;-78
2022/01/23 10:29:19;;;;;;;44.97;28.43;;;9.60;99.90;;;;;;2613069;54;20452;-78
2022/01/23 10:32:11;;;;;;;45.60;27.70;;;10.00;99.90;;;;;;2612055;54;20430;-77
2022/01/23 10:35:00;;;;;;;59.87;32.30;;;9.20;99.90;;;;;;2612604;54;20438;-79
2022/01/23 10:37:36;;;;;;;44.83;26.43;;;8.80;99.90;;;;;;2612518;39;20875;-77
2022/01/23 10:40:32;;;;;;;43.30;24.97;;;9.20;99.90;;;;;;2613787;54;20430;-77
2022/01/23 10:48:40;;;;;;;36.03;22.00;;;9.40;99.90;;;;;;2611886;47;20418;-75
2022/01/23 10:51:28;;;;;;;47.70;24.57;;;9.50;99.90;;;;;;2612048;47;20446;-77
2022/01/23 10:54:06;;;;;;;49.03;26.60;;;8.50;99.90;;;;;;2611852;54;21003;-77
2022/01/23 10:57:01;;;;;;;41.83;26.07;;;8.00;99.90;;;;;;2612488;54;20442;-77
2022/01/23 10:59:40;;;;;;;50.23;26.47;;;8.40;99.90;;;;;;2612092;54;20468;-77
2022/01/23 11:02:21;;;;;;;52.57;29.07;;;8.90;99.90;;;;;;2611869;54;20411;-77
2022/01/23 11:04:53;;;;;;;46.63;26.93;;;9.30;99.90;;;;;;2612123;54;20419;-77
2022/01/23 11:07:21;;;;;;;49.80;28.00;;;9.80;99.90;;;;;;2609861;39;20841;-77
2022/01/23 11:09:47;;;;;;;44.40;25.70;;;9.00;99.90;;;;;;2609911;54;21145;-77
2022/01/23 11:18:05;;;;;;;51.23;28.77;;;8.30;99.90;;;;;;2612025;54;20431;-76
2022/01/23 11:20:34;;;;;;;48.27;27.80;;;8.60;99.90;;;;;;2610904;54;20431;-78
2022/01/23 11:23:12;;;;;;;41.70;25.97;;;8.60;99.90;;;;;;2612080;47;20420;-77
2022/01/23 11:25:40;;;;;;;39.60;24.93;;;8.70;99.90;;;;;;2612040;54;20462;-77
2022/01/23 11:28:06;;;;;;;45.13;24.73;;;8.90;99.90;;;;;;2612429;54;21713;-77
2022/01/23 11:30:46;;;;;;;40.57;24.77;;;9.50;99.90;;;;;;2612404;54;20476;-76
2022/01/23 11:33:18;;;;;;;43.10;26.10;;;9.00;99.90;;;;;;2610534;54;20162;-76
2022/01/23 11:35:45;;;;;;;41.87;24.70;;;9.10;99.90;;;;;;2612009;54;20400;-77
2022/01/23 11:38:15;;;;;;;40.50;25.10;;;8.80;99.90;;;;;;2611633;54;21745;-76
2022/01/23 11:53:56;;;;;;;40.60;26.97;;;9.00;99.90;;;;;;2612069;54;20425;-76
2022/01/23 11:56:29;;;;;;;35.77;22.53;;;8.50;99.90;;;;;;2612260;54;20939;-76
2022/01/23 11:59:31;;;;;;;39.30;25.77;;;8.20;99.90;;;;;;2611173;54;20408;-77
2022/01/23 12:02:13;;;;;;;34.13;22.73;;;8.20;99.90;;;;;;2611913;54;20446;-77
2022/01/23 12:04:42;;;;;;;33.43;22.53;;;8.80;99.90;;;;;;2611663;47;22223;-77
2022/01/23 12:07:11;;;;;;;33.47;20.90;;;8.80;99.90;;;;;;2612344;54;20982;-77
2022/01/23 12:09:43;;;;;;;37.67;23.57;;;8.30;99.90;;;;;;2611383;54;20403;-78
2022/01/23 12:18:12;;;;;;;41.57;24.77;;;9.10;99.90;;;;;;2613626;39;20827;-77
2022/01/23 12:20:38;;;;;;;41.77;25.60;;;9.20;99.90;;;;;;2610767;54;20400;-77
2022/01/23 12:23:04;;;;;;;40.43;22.43;;;9.60;99.90;;;;;;2612620;39;20853;-76
2022/01/23 12:25:40;;;;;;;40.30;25.07;;;9.50;99.90;;;;;;2613468;54;20522;-76
2022/01/23 12:28:10;;;;;;;42.20;25.83;;;9.10;99.90;;;;;;2611893;54;20407;-76
2022/01/23 12:30:37;;;;;;;35.97;24.47;;;9.00;99.90;;;;;;2613019;54;20416;-77
2022/01/23 12:33:14;;;;;;;44.30;26.53;;;8.80;99.90;;;;;;2612689;47;21011;-76
2022/01/23 12:35:43;;;;;;;39.10;25.60;;;9.10;99.90;;;;;;2612595;54;20438;-77
2022/01/23 12:38:11;;;;;;;52.90;30.23;;;9.00;99.90;;;;;;2612689;54;20491;-77
2022/01/23 12:40:46;;;;;;;42.93;28.10;;;9.20;99.90;;;;;;2611875;54;20426;-77
2022/01/23 12:43:24;;;;;;;48.03;28.57;;;9.30;99.90;;;;;;2613738;54;20556;-78
2022/01/23 12:45:56;;;;;;;44.13;26.67;;;9.50;99.90;;;;;;2612700;54;20403;-77
2022/01/23 12:48:29;;;;;;;38.37;24.43;;;9.10;99.90;;;;;;2612644;54;20399;-76
2022/01/23 12:51:07;;;;;;;41.47;25.87;;;9.00;99.90;;;;;;2611510;47;20416;-76
2022/01/23 12:53:48;;;;;;;43.00;27.77;;;9.20;99.90;;;;;;2613351;54;20413;-76
2022/01/23 12:56:20;;;;;;;30.50;21.27;;;9.50;99.90;;;;;;2612380;54;20457;-77
2022/01/23 12:58:59;;;;;;;36.83;23.33;;;9.30;99.90;;;;;;2613148;54;20420;-78
2022/01/23 13:01:27;;;;;;;28.70;20.47;;;9.30;99.90;;;;;;2611164;39;20789;-77
2022/01/23 13:03:59;;;;;;;56.63;36.60;;;9.30;99.90;;;;;;2613956;39;20489;-77
2022/01/23 13:09:45;;;;;;;34.03;21.40;;;8.00;99.90;;;;;;2611539;54;20446;-78
2022/01/23 13:15:11;;;;;;;34.73;22.17;;;8.00;99.90;;;;;;2613024;54;20405;-76
2022/01/23 13:17:57;;;;;;;39.80;23.90;;;8.30;99.90;;;;;;2611948;54;20406;-75
2022/01/23 13:32:31;;;;;;;25.00;13.90;;;8.50;99.90;;;;;;2612986;51;20431;-75
2022/01/23 13:35:05;;;;;;;28.73;16.80;;;8.00;99.90;;;;;;2611588;47;20428;-78
2022/01/23 13:37:36;;;;;;;22.63;14.20;;;8.00;99.90;;;;;;2612850;54;20426;-76
2022/01/23 13:40:19;;;;;;;38.03;22.83;;;8.30;99.90;;;;;;2614796;54;20434;-77
2022/01/23 13:54:16;;;;;;;51.90;29.17;;;8.90;99.90;;;;;;2613840;39;20831;-76
2022/01/23 14:00:12;;;;;;;30.27;19.53;;;8.80;99.90;;;;;;2615159;54;20460;-76
2022/01/23 14:02:30;;;;;;;33.00;17.57;;;9.10;99.90;;;;;;2613368;46;20474;-77
2022/01/23 14:05:05;;;;;;;35.23;21.13;;;9.10;99.90;;;;;;2614060;54;20402;-76
2022/01/23 14:07:32;;;;;;;28.40;18.07;;;8.50;99.90;;;;;;2614151;54;20446;-77
2022/01/23 14:10:09;;;;;;;26.50;17.17;;;8.90;99.90;;;;;;2612627;54;20431;-76
2022/01/23 14:12:35;;;;;;;31.27;18.43;;;9.00;99.90;;;;;;2613155;47;20543;-77
2022/01/23 14:15:05;;;;;;;37.03;20.67;;;8.70;99.90;;;;;;2613929;54;20417;-78
2022/01/23 14:17:36;;;;;;;28.63;18.50;;;9.30;99.90;;;;;;2613401;54;20282;-77
2022/01/23 14:20:16;;;;;;;29.27;17.73;;;9.40;99.90;;;;;;2612876;39;20941;-76
2022/01/23 14:22:44;;;;;;;30.77;18.20;;;9.50;99.90;;;;;;2613069;39;20603;-78
2022/01/23 14:25:12;;;;;;;32.30;19.80;;;9.60;99.90;;;;;;2612545;54;20475;-76
2022/01/23 14:27:39;;;;;;;29.20;18.63;;;9.90;99.90;;;;;;2612279;51;20419;-77
2022/01/23 14:30:10;;;;;;;29.07;18.50;;;9.80;99.90;;;;;;2613544;54;20439;-75
2022/01/23 14:32:48;;;;;;;36.53;19.60;;;9.90;99.90;;;;;;2613279;54;20390;-76
2022/01/23 14:35:16;;;;;;;29.67;18.57;;;9.90;99.90;;;;;;2613382;54;20415;-76
2022/01/23 14:37:44;;;;;;;32.30;19.00;;;9.40;99.90;;;;;;2612019;54;20438;-77
2022/01/23 14:40:27;;;;;;;30.63;19.67;;;9.30;99.90;;;;;;2610494;54;21115;-76
2022/01/23 14:43:05;;;;;;;27.43;19.13;;;9.60;99.90;;;;;;2612440;54;20402;-77
2022/01/23 14:45:34;;;;;;;31.60;18.20;;;9.50;99.90;;;;;;2613715;54;20817;-77
2022/01/23 14:48:03;;;;;;;34.87;20.90;;;9.20;99.90;;;;;;2613441;54;20979;-77
2022/01/23 14:50:31;;;;;;;39.20;27.73;;;9.30;99.90;;;;;;2612113;54;20471;-76
2022/01/23 14:52:57;;;;;;;36.53;25.90;;;9.70;99.90;;;;;;2613527;54;20404;-77
2022/01/23 14:55:24;;;;;;;33.47;20.07;;;9.70;99.90;;;;;;2612884;54;20495;-77
2022/01/23 14:57:55;;;;;;;32.60;20.30;;;9.90;99.90;;;;;;2612135;39;20975;-77
2022/01/23 15:00:21;;;;;;;35.40;21.20;;;9.90;99.90;;;;;;2612919;54;20369;-76
2022/01/23 15:02:46;;;;;;;34.97;20.20;;;9.40;99.90;;;;;;2612603;54;20407;-76
2022/01/23 15:05:12;;;;;;;29.27;17.10;;;8.40;99.90;;;;;;2610187;47;20473;-77
2022/01/23 15:07:41;;;;;;;29.20;19.13;;;8.30;99.90;;;;;;2611099;54;20705;-76
2022/01/23 15:10:08;;;;;;;31.90;20.30;;;8.20;99.90;;;;;;2612129;54;20890;-76
2022/01/23 15:12:34;;;;;;;30.07;18.63;;;8.00;99.90;;;;;;2612669;47;20454;-76
2022/01/23 15:15:01;;;;;;;32.90;19.07;;;7.90;99.90;;;;;;2612370;54;20437;-77
2022/01/23 15:17:27;;;;;;;34.87;19.53;;;8.10;99.90;;;;;;2612425;39;20835;-77
2022/01/23 15:19:53;;;;;;;30.10;20.70;;;8.20;99.90;;;;;;2612133;47;20429;-76
2022/01/23 15:22:21;;;;;;;30.40;19.73;;;8.20;99.90;;;;;;2612579;46;20438;-78
2022/01/23 15:24:47;;;;;;;40.60;21.30;;;7.90;99.90;;;;;;2611981;54;20405;-77
2022/01/23 15:27:14;;;;;;;33.90;19.10;;;8.30;99.90;;;;;;2612339;54;21014;-76
2022/01/23 15:29:40;;;;;;;33.03;18.73;;;8.30;99.90;;;;;;2612513;54;20416;-77
2022/01/23 15:32:08;;;;;;;30.90;17.90;;;7.80;99.90;;;;;;2612716;54;20419;-77
2022/01/23 15:34:36;;;;;;;28.00;17.63;;;7.60;99.90;;;;;;2611893;54;20415;-77
2022/01/23 15:37:03;;;;;;;32.40;19.13;;;7.90;99.90;;;;;;2611711;54;20991;-78
2022/01/23 15:39:30;;;;;;;28.60;19.33;;;8.30;99.90;;;;;;2612100;46;20435;-77
2022/01/23 15:41:56;;;;;;;30.50;20.67;;;8.70;99.90;;;;;;2611714;54;20395;-78
2022/01/23 15:44:23;;;;;;;29.53;17.90;;;8.50;99.90;;;;;;2611388;54;20407;-77
2022/01/23 15:46:50;;;;;;;33.70;18.90;;;8.40;99.90;;;;;;2609854;47;20427;-77
2022/01/23 15:49:17;;;;;;;30.63;18.50;;;8.50;99.90;;;;;;2611611;39;21072;-77
2022/01/23 15:51:47;;;;;;;31.57;19.50;;;8.50;99.90;;;;;;2610957;54;20430;-76
2022/01/23 15:54:14;;;;;;;33.17;20.50;;;8.60;99.90;;;;;;2630768;36;20483;-78
2022/01/23 15:56:41;;;;;;;31.70;20.13;;;8.90;99.90;;;;;;2612055;54;20415;-77
2022/01/23 15:59:07;;;;;;;38.37;20.80;;;8.90;99.90;;;;;;2609996;47;20522;-77
2022/01/23 16:01:35;;;;;;;39.13;22.23;;;9.10;99.90;;;;;;2610832;54;20498;-78
2022/01/23 16:04:01;;;;;;;33.47;21.17;;;9.10;99.90;;;;;;2610523;47;20426;-77
2022/01/23 16:06:27;;;;;;;40.90;21.67;;;9.30;99.90;;;;;;2611847;54;20427;-76
2022/01/23 16:08:53;;;;;;;31.20;20.17;;;9.20;99.90;;;;;;2610936;39;20954;-76
2022/01/23 16:11:19;;;;;;;35.03;21.77;;;9.30;99.90;;;;;;2611829;54;22729;-77
2022/01/23 16:13:45;;;;;;;32.13;21.60;;;9.50;99.90;;;;;;2612579;39;20805;-78
2022/01/23 16:16:11;;;;;;;35.77;20.87;;;9.60;99.90;;;;;;2612543;46;20478;-76
2022/01/23 16:18:37;;;;;;;35.10;21.90;;;9.50;99.90;;;;;;2612165;39;20946;-77
2022/01/23 16:21:03;;;;;;;37.60;22.00;;;8.90;99.90;;;;;;2612491;54;20404;-76
2022/01/23 16:23:29;;;;;;;38.20;24.60;;;8.60;99.90;;;;;;2611490;54;20644;-76
2022/01/23 16:25:55;;;;;;;38.30;23.60;;;8.80;99.90;;;;;;2610960;54;20487;-76
2022/01/23 16:28:21;;;;;;;35.60;24.27;;;9.20;99.90;;;;;;2612788;39;20875;-76
2022/01/23 16:30:55;;;;;;;43.27;26.10;;;9.40;99.90;;;;;;2611661;54;20473;-76
2022/01/23 16:33:23;;;;;;;51.47;30.53;;;9.50;99.90;;;;;;2612569;54;20266;-77
2022/01/23 16:35:51;;;;;;;44.30;24.03;;;9.30;99.90;;;;;;2612281;54;20549;-76